Samoset, Florida
Current Conditions -  °F | °C
As of 2:53 PM on Saturday 20 Dec 2014 (Local Time) from KSRQ Reporting Station
Clear Clear  
Wind Chill: 74°   Ceiling: Unl
Heat Index: 74°   Visibility: 10mi
Dew Point: 60°   Wind: 10mph
Humidity: 62%   Direction: 220°SW
Pressure: 30.02"   Gusts: NA
Location:  27.4788°N, 82.5343°W
Report Text: KSRQ 201953Z AUTO 22009KT 10SM CLR 23/16 A3002 RMK AO2 SLP164 T02330156
Loading
Personal Weather Stations






























Interactive Weather Map New forecast layout! Learn more

10-Day Weather Forecast

Advertisements
Track Severe Weather on mobile